Essex, IA (51638)

6:12 AM CST on January 22, 2018 (GMT -0600)
NFS-1448IAve | | Change Station

Elev 1148 ft 40.84 °N, 95.21 °W | Updated 8 minutes ago

Overcast
Overcast
35.0 °F
Feels Like 31 °F
N
5.0
Wind Variable Wind from North
Gusts 9.0 mph

Today
High -- | Low -- °F
--% Chance of Precip.
Yesterday
High -- | Low -- °F
Precip. -- in
Pressure 29.39 in
Visibility 8.0 miles
Clouds Few 300 ft
Scattered Clouds 3100 ft
Mostly Cloudy 4700 ft
Windchill 31 °F
Dew Point 34 °F
Humidity 97%
Rainfall 0.17 in
Snow Depth Not available.
7:39 AM 5:26 PM
Waxing Crescent, 26% visible
METAR KSDA 221155Z AUTO 01014KT 8SM -RA FEW003 SCT031 BKN047 03/03 A2939 RMK AO2 P0005
Pressure 29.39 in
Visibility 8.0 miles
Clouds Few 300 ft
Scattered Clouds 3100 ft
Mostly Cloudy 4700 ft
Windchill 31 °F
Dew Point 34 °F
Humidity 97%
Rainfall 0.17 in
Snow Depth Not available.
7:39 AM 5:26 PM
Waxing Crescent, 26% visible
METAR KSDA 221155Z AUTO 01014KT 8SM -RA FEW003 SCT031 BKN047 03/03 A2939 RMK AO2 P0005

Get Severe Weather Alerts

Thanks for signing up!

Be on the lookout for a verification email in your inbox.

You'll start receiving the daily forecast at 6 AM.

×

10-Day Weather Forecast

Almanac

Astronomy

Jan. 22, 2018 Rise Set
Actual Time
Civil Twilight
Nautical Twilight
Astronomical Twilight
Moon
Length of Visible Light
Length of Day
Tomorrow will be .
, % of the Moon is Illuminated

Today's Extremes

State Highs State Lows

Community

WunderPhotos

Category 6

Welcome to Category 6. This is the collective home for Weather Underground's featured writeups by Dr. Jeff Masters (right), Bob Henson (left), Chris Burt, and other regular contributors.

Nearby

Air Quality

  Air Quality AQ Index Pollutant
Not available.

Snow Depth

Station Depth Elevation

Earthquake Activity

City Distance Mag. Time & Date
Minimum magnitude displayed is 2.5.

Coastal Water Temperatures

Place Temperature

Stations

Nearby Weather Stations

Station Location Temp. Windchill Dew Point Humidity Wind Precip. Elev Updated Type
                   

Watches & Warnings

There are currently no watches in effect.